sensor_id;sensor_type;location;lat;lon;timestamp;P1;durP1;ratioP1;P2;durP2;ratioP2
52248;SDS011;38541;48.130;8.378;2023-05-07T00:00:05;3.15;;;2.85;;
52248;SDS011;38541;48.130;8.378;2023-05-07T00:02:35;2.63;;;2.38;;
52248;SDS011;38541;48.130;8.378;2023-05-07T00:05:03;3.17;;;2.88;;
52248;SDS011;38541;48.130;8.378;2023-05-07T00:07:30;3.42;;;3.10;;
52248;SDS011;38541;48.130;8.378;2023-05-07T00:09:57;4.10;;;3.10;;
52248;SDS011;38541;48.130;8.378;2023-05-07T00:12:23;2.50;;;2.28;;
52248;SDS011;38541;48.130;8.378;2023-05-07T00:14:50;2.78;;;2.58;;
52248;SDS011;38541;48.130;8.378;2023-05-07T00:17:16;3.40;;;3.20;;
52248;SDS011;38541;48.130;8.378;2023-05-07T00:19:42;3.50;;;2.45;;
52248;SDS011;38541;48.130;8.378;2023-05-07T00:22:09;2.83;;;2.58;;
52248;SDS011;38541;48.130;8.378;2023-05-07T00:24:36;2.90;;;2.70;;
52248;SDS011;38541;48.130;8.378;2023-05-07T00:27:02;2.80;;;2.60;;
52248;SDS011;38541;48.130;8.378;2023-05-07T00:29:29;3.67;;;2.78;;
52248;SDS011;38541;48.130;8.378;2023-05-07T00:31:55;3.22;;;2.45;;
52248;SDS011;38541;48.130;8.378;2023-05-07T00:34:22;2.80;;;2.60;;
52248;SDS011;38541;48.130;8.378;2023-05-07T00:36:48;4.47;;;2.83;;
52248;SDS011;38541;48.130;8.378;2023-05-07T00:39:15;3.08;;;2.13;;
52248;SDS011;38541;48.130;8.378;2023-05-07T00:41:41;4.32;;;2.35;;
52248;SDS011;38541;48.130;8.378;2023-05-07T00:44:08;5.25;;;2.75;;
52248;SDS011;38541;48.130;8.378;2023-05-07T00:46:34;2.15;;;1.90;;
52248;SDS011;38541;48.130;8.378;2023-05-07T00:49:01;3.30;;;2.58;;
52248;SDS011;38541;48.130;8.378;2023-05-07T00:51:28;2.85;;;2.63;;
52248;SDS011;38541;48.130;8.378;2023-05-07T00:53:56;2.97;;;2.67;;
52248;SDS011;38541;48.130;8.378;2023-05-07T00:56:23;2.42;;;2.22;;
52248;SDS011;38541;48.130;8.378;2023-05-07T00:58:49;2.63;;;2.42;;
52248;SDS011;38541;48.130;8.378;2023-05-07T01:01:16;2.58;;;2.05;;
52248;SDS011;38541;48.130;8.378;2023-05-07T01:03:43;2.90;;;2.63;;
52248;SDS011;38541;48.130;8.378;2023-05-07T01:06:10;2.92;;;2.60;;
52248;SDS011;38541;48.130;8.378;2023-05-07T01:08:39;4.22;;;2.55;;
52248;SDS011;38541;48.130;8.378;2023-05-07T01:11:07;2.97;;;2.42;;
52248;SDS011;38541;48.130;8.378;2023-05-07T01:13:35;3.45;;;2.35;;
52248;SDS011;38541;48.130;8.378;2023-05-07T01:16:03;2.65;;;2.17;;
52248;SDS011;38541;48.130;8.378;2023-05-07T01:18:30;2.72;;;2.50;;
52248;SDS011;38541;48.130;8.378;2023-05-07T01:20:57;2.83;;;2.55;;
52248;SDS011;38541;48.130;8.378;2023-05-07T01:23:26;2.05;;;1.90;;
52248;SDS011;38541;48.130;8.378;2023-05-07T01:25:53;2.80;;;2.15;;
52248;SDS011;38541;48.130;8.378;2023-05-07T01:28:22;2.97;;;2.78;;
52248;SDS011;38541;48.130;8.378;2023-05-07T01:30:52;2.95;;;2.50;;
52248;SDS011;38541;48.130;8.378;2023-05-07T01:33:21;2.55;;;2.35;;
52248;SDS011;38541;48.130;8.378;2023-05-07T01:35:50;2.60;;;2.40;;
52248;SDS011;38541;48.130;8.378;2023-05-07T01:38:19;3.75;;;2.20;;
52248;SDS011;38541;48.130;8.378;2023-05-07T01:40:48;2.67;;;2.20;;
52248;SDS011;38541;48.130;8.378;2023-05-07T01:43:15;2.20;;;2.10;;
52248;SDS011;38541;48.130;8.378;2023-05-07T01:45:42;2.40;;;2.10;;
52248;SDS011;38541;48.130;8.378;2023-05-07T01:48:10;2.78;;;2.15;;
52248;SDS011;38541;48.130;8.378;2023-05-07T01:50:38;2.50;;;2.25;;
52248;SDS011;38541;48.130;8.378;2023-05-07T01:53:05;2.65;;;2.15;;
52248;SDS011;38541;48.130;8.378;2023-05-07T01:55:32;2.38;;;2.17;;
52248;SDS011;38541;48.130;8.378;2023-05-07T01:57:59;2.85;;;2.65;;
52248;SDS011;38541;48.130;8.378;2023-05-07T02:00:26;2.40;;;2.20;;
52248;SDS011;38541;48.130;8.378;2023-05-07T02:02:53;2.55;;;2.35;;
52248;SDS011;38541;48.130;8.378;2023-05-07T02:05:29;2.35;;;2.15;;
52248;SDS011;38541;48.130;8.378;2023-05-07T02:08:04;2.30;;;2.10;;
52248;SDS011;38541;48.130;8.378;2023-05-07T02:10:31;2.28;;;2.08;;
52248;SDS011;38541;48.130;8.378;2023-05-07T02:12:58;2.75;;;2.20;;
52248;SDS011;38541;48.130;8.378;2023-05-07T02:15:25;3.40;;;1.70;;
52248;SDS011;38541;48.130;8.378;2023-05-07T02:17:57;2.15;;;2.05;;
52248;SDS011;38541;48.130;8.378;2023-05-07T02:20:33;2.35;;;2.15;;
52248;SDS011;38541;48.130;8.378;2023-05-07T02:23:01;2.00;;;1.90;;
52248;SDS011;38541;48.130;8.378;2023-05-07T02:25:28;2.92;;;2.65;;
52248;SDS011;38541;48.130;8.378;2023-05-07T02:27:57;2.88;;;2.50;;
52248;SDS011;38541;48.130;8.378;2023-05-07T02:30:34;2.85;;;2.60;;
52248;SDS011;38541;48.130;8.378;2023-05-07T02:33:00;2.50;;;2.30;;
52248;SDS011;38541;48.130;8.378;2023-05-07T02:35:27;2.40;;;2.30;;
52248;SDS011;38541;48.130;8.378;2023-05-07T02:37:54;2.70;;;2.50;;
52248;SDS011;38541;48.130;8.378;2023-05-07T02:40:23;2.60;;;2.40;;
52248;SDS011;38541;48.130;8.378;2023-05-07T02:42:49;2.45;;;2.25;;
52248;SDS011;38541;48.130;8.378;2023-05-07T02:45:15;2.53;;;2.33;;
52248;SDS011;38541;48.130;8.378;2023-05-07T02:47:43;3.50;;;2.92;;
52248;SDS011;38541;48.130;8.378;2023-05-07T02:50:10;4.90;;;3.05;;
52248;SDS011;38541;48.130;8.378;2023-05-07T02:52:38;3.65;;;2.60;;
52248;SDS011;38541;48.130;8.378;2023-05-07T02:55:04;2.35;;;2.15;;
52248;SDS011;38541;48.130;8.378;2023-05-07T02:57:31;2.47;;;2.33;;
52248;SDS011;38541;48.130;8.378;2023-05-07T02:59:58;2.28;;;2.17;;
52248;SDS011;38541;48.130;8.378;2023-05-07T03:02:27;2.22;;;2.13;;
52248;SDS011;38541;48.130;8.378;2023-05-07T03:04:54;3.00;;;2.50;;
52248;SDS011;38541;48.130;8.378;2023-05-07T03:07:20;3.42;;;2.13;;
52248;SDS011;38541;48.130;8.378;2023-05-07T03:09:47;3.30;;;2.13;;
52248;SDS011;38541;48.130;8.378;2023-05-07T03:12:13;2.15;;;2.05;;
52248;SDS011;38541;48.130;8.378;2023-05-07T03:14:40;2.30;;;2.10;;
52248;SDS011;38541;48.130;8.378;2023-05-07T03:17:06;2.20;;;2.10;;
52248;SDS011;38541;48.130;8.378;2023-05-07T03:19:33;2.33;;;2.20;;
52248;SDS011;38541;48.130;8.378;2023-05-07T03:21:59;2.83;;;2.20;;
52248;SDS011;38541;48.130;8.378;2023-05-07T03:24:26;4.30;;;2.50;;
52248;SDS011;38541;48.130;8.378;2023-05-07T03:26:52;2.47;;;1.90;;
52248;SDS011;38541;48.130;8.378;2023-05-07T03:29:19;3.17;;;2.08;;
52248;SDS011;38541;48.130;8.378;2023-05-07T03:31:46;1.83;;;1.67;;
52248;SDS011;38541;48.130;8.378;2023-05-07T03:34:12;2.35;;;1.80;;
52248;SDS011;38541;48.130;8.378;2023-05-07T03:36:39;2.40;;;2.20;;
52248;SDS011;38541;48.130;8.378;2023-05-07T03:39:08;5.18;;;2.28;;
52248;SDS011;38541;48.130;8.378;2023-05-07T03:41:38;2.42;;;2.33;;
52248;SDS011;38541;48.130;8.378;2023-05-07T03:44:04;2.78;;;2.58;;
52248;SDS011;38541;48.130;8.378;2023-05-07T03:46:31;2.95;;;2.67;;
52248;SDS011;38541;48.130;8.378;2023-05-07T03:48:59;3.05;;;2.22;;
52248;SDS011;38541;48.130;8.378;2023-05-07T03:51:26;2.50;;;2.30;;
52248;SDS011;38541;48.130;8.378;2023-05-07T03:53:53;2.50;;;2.30;;
52248;SDS011;38541;48.130;8.378;2023-05-07T03:56:20;3.33;;;2.72;;
52248;SDS011;38541;48.130;8.378;2023-05-07T03:58:53;3.88;;;2.88;;
52248;SDS011;38541;48.130;8.378;2023-05-07T04:01:20;3.08;;;2.53;;
52248;SDS011;38541;48.130;8.378;2023-05-07T04:03:47;3.88;;;2.17;;
52248;SDS011;38541;48.130;8.378;2023-05-07T04:06:15;2.50;;;2.30;;
52248;SDS011;38541;48.130;8.378;2023-05-07T04:08:45;2.35;;;2.15;;
52248;SDS011;38541;48.130;8.378;2023-05-07T04:11:12;2.58;;;2.38;;
52248;SDS011;38541;48.130;8.378;2023-05-07T04:13:39;2.60;;;2.40;;
52248;SDS011;38541;48.130;8.378;2023-05-07T04:16:08;2.97;;;2.35;;
52248;SDS011;38541;48.130;8.378;2023-05-07T04:18:36;2.78;;;2.40;;
52248;SDS011;38541;48.130;8.378;2023-05-07T04:21:03;1.95;;;1.85;;
52248;SDS011;38541;48.130;8.378;2023-05-07T04:23:31;2.50;;;1.95;;
52248;SDS011;38541;48.130;8.378;2023-05-07T04:26:01;3.20;;;2.30;;
52248;SDS011;38541;48.130;8.378;2023-05-07T04:28:34;2.40;;;2.20;;
52248;SDS011;38541;48.130;8.378;2023-05-07T04:31:01;2.78;;;2.45;;
52248;SDS011;38541;48.130;8.378;2023-05-07T04:33:29;2.40;;;2.30;;
52248;SDS011;38541;48.130;8.378;2023-05-07T04:35:57;2.45;;;2.30;;
52248;SDS011;38541;48.130;8.378;2023-05-07T04:38:24;2.53;;;2.33;;
52248;SDS011;38541;48.130;8.378;2023-05-07T04:40:52;2.90;;;2.60;;
52248;SDS011;38541;48.130;8.378;2023-05-07T04:43:22;3.85;;;3.20;;
52248;SDS011;38541;48.130;8.378;2023-05-07T04:45:50;2.55;;;2.10;;
52248;SDS011;38541;48.130;8.378;2023-05-07T04:48:20;2.70;;;2.50;;
52248;SDS011;38541;48.130;8.378;2023-05-07T04:50:48;2.67;;;2.47;;
52248;SDS011;38541;48.130;8.378;2023-05-07T04:53:19;3.92;;;2.58;;
52248;SDS011;38541;48.130;8.378;2023-05-07T04:55:47;3.05;;;2.33;;
52248;SDS011;38541;48.130;8.378;2023-05-07T04:58:14;2.40;;;2.20;;
52248;SDS011;38541;48.130;8.378;2023-05-07T05:00:42;2.15;;;2.05;;
52248;SDS011;38541;48.130;8.378;2023-05-07T05:03:09;2.45;;;2.25;;
52248;SDS011;38541;48.130;8.378;2023-05-07T05:05:38;2.58;;;2.38;;
52248;SDS011;38541;48.130;8.378;2023-05-07T05:08:05;2.50;;;2.30;;
52248;SDS011;38541;48.130;8.378;2023-05-07T05:10:34;3.60;;;3.30;;
52248;SDS011;38541;48.130;8.378;2023-05-07T05:13:01;3.90;;;3.60;;
52248;SDS011;38541;48.130;8.378;2023-05-07T05:15:27;3.83;;;3.03;;
52248;SDS011;38541;48.130;8.378;2023-05-07T05:17:54;2.95;;;2.75;;
52248;SDS011;38541;48.130;8.378;2023-05-07T05:20:21;2.90;;;2.65;;
52248;SDS011;38541;48.130;8.378;2023-05-07T05:22:48;2.67;;;2.47;;
52248;SDS011;38541;48.130;8.378;2023-05-07T05:25:14;4.50;;;3.05;;
52248;SDS011;38541;48.130;8.378;2023-05-07T05:27:41;3.25;;;2.63;;
52248;SDS011;38541;48.130;8.378;2023-05-07T05:30:08;2.90;;;2.70;;
52248;SDS011;38541;48.130;8.378;2023-05-07T05:32:36;3.53;;;3.22;;
52248;SDS011;38541;48.130;8.378;2023-05-07T05:35:04;3.42;;;3.13;;
52248;SDS011;38541;48.130;8.378;2023-05-07T05:37:31;3.42;;;3.13;;
52248;SDS011;38541;48.130;8.378;2023-05-07T05:39:59;2.80;;;2.60;;
52248;SDS011;38541;48.130;8.378;2023-05-07T05:42:28;3.97;;;3.38;;
52248;SDS011;38541;48.130;8.378;2023-05-07T05:44:54;2.97;;;2.78;;
52248;SDS011;38541;48.130;8.378;2023-05-07T05:47:21;3.63;;;3.38;;
52248;SDS011;38541;48.130;8.378;2023-05-07T05:49:52;2.95;;;2.75;;
52248;SDS011;38541;48.130;8.378;2023-05-07T05:52:19;3.70;;;3.40;;
52248;SDS011;38541;48.130;8.378;2023-05-07T05:54:46;3.22;;;2.88;;
52248;SDS011;38541;48.130;8.378;2023-05-07T05:57:12;3.70;;;3.40;;
52248;SDS011;38541;48.130;8.378;2023-05-07T05:59:39;4.88;;;3.45;;
52248;SDS011;38541;48.130;8.378;2023-05-07T06:02:05;3.90;;;3.22;;
52248;SDS011;38541;48.130;8.378;2023-05-07T06:04:33;3.85;;;3.55;;
52248;SDS011;38541;48.130;8.378;2023-05-07T06:06:59;3.78;;;3.47;;
52248;SDS011;38541;48.130;8.378;2023-05-07T06:09:26;3.85;;;3.45;;
52248;SDS011;38541;48.130;8.378;2023-05-07T06:11:52;4.15;;;3.75;;
52248;SDS011;38541;48.130;8.378;2023-05-07T06:14:19;3.42;;;3.13;;
52248;SDS011;38541;48.130;8.378;2023-05-07T06:16:46;3.05;;;2.85;;
52248;SDS011;38541;48.130;8.378;2023-05-07T06:19:12;3.30;;;3.10;;
52248;SDS011;38541;48.130;8.378;2023-05-07T06:21:41;3.15;;;2.95;;
52248;SDS011;38541;48.130;8.378;2023-05-07T06:24:08;3.25;;;3.00;;
52248;SDS011;38541;48.130;8.378;2023-05-07T06:26:37;3.10;;;2.80;;
52248;SDS011;38541;48.130;8.378;2023-05-07T06:29:03;3.63;;;3.03;;
52248;SDS011;38541;48.130;8.378;2023-05-07T06:31:30;3.75;;;2.95;;
52248;SDS011;38541;48.130;8.378;2023-05-07T06:34:06;2.95;;;2.75;;
52248;SDS011;38541;48.130;8.378;2023-05-07T06:36:36;3.05;;;2.80;;
52248;SDS011;38541;48.130;8.378;2023-05-07T06:39:11;3.45;;;3.15;;
52248;SDS011;38541;48.130;8.378;2023-05-07T06:41:38;3.67;;;3.20;;
52248;SDS011;38541;48.130;8.378;2023-05-07T06:44:13;3.75;;;3.35;;
52248;SDS011;38541;48.130;8.378;2023-05-07T06:46:45;3.22;;;2.92;;
52248;SDS011;38541;48.130;8.378;2023-05-07T06:49:13;3.22;;;3.03;;
52248;SDS011;38541;48.130;8.378;2023-05-07T06:51:39;3.40;;;3.10;;
52248;SDS011;38541;48.130;8.378;2023-05-07T06:54:06;3.22;;;3.00;;
52248;SDS011;38541;48.130;8.378;2023-05-07T06:56:35;3.60;;;3.30;;
52248;SDS011;38541;48.130;8.378;2023-05-07T06:59:03;3.35;;;2.97;;
52248;SDS011;38541;48.130;8.378;2023-05-07T07:01:34;3.58;;;2.92;;
52248;SDS011;38541;48.130;8.378;2023-05-07T07:04:02;3.47;;;3.17;;
52248;SDS011;38541;48.130;8.378;2023-05-07T07:06:29;3.40;;;3.10;;
52248;SDS011;38541;48.130;8.378;2023-05-07T07:08:59;3.53;;;3.22;;
52248;SDS011;38541;48.130;8.378;2023-05-07T07:11:27;3.00;;;2.80;;
52248;SDS011;38541;48.130;8.378;2023-05-07T07:13:54;4.97;;;4.40;;
52248;SDS011;38541;48.130;8.378;2023-05-07T07:16:21;3.13;;;2.83;;
52248;SDS011;38541;48.130;8.378;2023-05-07T07:18:49;2.80;;;2.47;;
52248;SDS011;38541;48.130;8.378;2023-05-07T07:21:17;2.50;;;2.30;;
52248;SDS011;38541;48.130;8.378;2023-05-07T07:23:43;2.67;;;1.90;;
52248;SDS011;38541;48.130;8.378;2023-05-07T07:26:10;1.90;;;1.80;;
52248;SDS011;38541;48.130;8.378;2023-05-07T07:28:41;3.40;;;3.10;;
52248;SDS011;38541;48.130;8.378;2023-05-07T07:31:15;3.00;;;2.42;;
52248;SDS011;38541;48.130;8.378;2023-05-07T07:33:42;2.30;;;2.10;;
52248;SDS011;38541;48.130;8.378;2023-05-07T07:36:09;2.13;;;1.92;;
52248;SDS011;38541;48.130;8.378;2023-05-07T07:38:36;3.67;;;2.15;;
52248;SDS011;38541;48.130;8.378;2023-05-07T07:41:04;3.17;;;1.95;;
52248;SDS011;38541;48.130;8.378;2023-05-07T07:43:30;1.90;;;1.80;;
52248;SDS011;38541;48.130;8.378;2023-05-07T07:45:57;2.08;;;1.98;;
52248;SDS011;38541;48.130;8.378;2023-05-07T07:48:25;2.70;;;2.40;;
52248;SDS011;38541;48.130;8.378;2023-05-07T07:50:52;2.03;;;1.85;;
52248;SDS011;38541;48.130;8.378;2023-05-07T07:53:19;1.92;;;1.83;;
52248;SDS011;38541;48.130;8.378;2023-05-07T07:55:45;1.75;;;1.65;;
52248;SDS011;38541;48.130;8.378;2023-05-07T07:58:15;1.50;;;1.40;;
52248;SDS011;38541;48.130;8.378;2023-05-07T08:00:42;1.70;;;1.60;;
52248;SDS011;38541;48.130;8.378;2023-05-07T08:03:10;1.77;;;1.67;;
52248;SDS011;38541;48.130;8.378;2023-05-07T08:05:41;2.58;;;2.08;;
52248;SDS011;38541;48.130;8.378;2023-05-07T08:08:07;2.20;;;2.00;;
52248;SDS011;38541;48.130;8.378;2023-05-07T08:10:36;2.10;;;2.00;;
52248;SDS011;38541;48.130;8.378;2023-05-07T08:13:12;2.47;;;1.70;;
52248;SDS011;38541;48.130;8.378;2023-05-07T08:15:40;1.45;;;1.35;;
52248;SDS011;38541;48.130;8.378;2023-05-07T08:18:07;2.15;;;1.95;;
52248;SDS011;38541;48.130;8.378;2023-05-07T08:20:34;1.80;;;1.70;;
52248;SDS011;38541;48.130;8.378;2023-05-07T08:23:07;2.10;;;1.77;;
52248;SDS011;38541;48.130;8.378;2023-05-07T08:25:34;1.70;;;1.60;;
52248;SDS011;38541;48.130;8.378;2023-05-07T08:28:01;1.60;;;1.50;;
52248;SDS011;38541;48.130;8.378;2023-05-07T08:30:30;2.90;;;1.80;;
52248;SDS011;38541;48.130;8.378;2023-05-07T08:32:56;2.20;;;2.00;;
52248;SDS011;38541;48.130;8.378;2023-05-07T08:35:23;1.88;;;1.77;;
52248;SDS011;38541;48.130;8.378;2023-05-07T08:37:50;2.08;;;1.70;;
52248;SDS011;38541;48.130;8.378;2023-05-07T08:40:17;1.52;;;1.42;;
52248;SDS011;38541;48.130;8.378;2023-05-07T08:42:45;1.67;;;1.58;;
52248;SDS011;38541;48.130;8.378;2023-05-07T08:45:16;1.80;;;1.70;;
52248;SDS011;38541;48.130;8.378;2023-05-07T08:47:48;2.00;;;1.90;;
52248;SDS011;38541;48.130;8.378;2023-05-07T08:50:21;3.90;;;1.98;;
52248;SDS011;38541;48.130;8.378;2023-05-07T08:52:48;1.73;;;1.63;;
52248;SDS011;38541;48.130;8.378;2023-05-07T08:55:16;2.58;;;2.00;;
52248;SDS011;38541;48.130;8.378;2023-05-07T08:57:43;2.13;;;2.00;;
52248;SDS011;38541;48.130;8.378;2023-05-07T09:00:11;1.80;;;1.70;;
52248;SDS011;38541;48.130;8.378;2023-05-07T09:02:40;2.20;;;2.00;;
52248;SDS011;38541;48.130;8.378;2023-05-07T09:05:07;2.08;;;1.98;;
52248;SDS011;38541;48.130;8.378;2023-05-07T09:07:35;2.15;;;1.95;;
52248;SDS011;38541;48.130;8.378;2023-05-07T09:10:04;2.28;;;2.10;;
52248;SDS011;38541;48.130;8.378;2023-05-07T09:12:34;2.13;;;1.92;;
52248;SDS011;38541;48.130;8.378;2023-05-07T09:15:04;2.20;;;1.73;;
52248;SDS011;38541;48.130;8.378;2023-05-07T09:17:32;2.40;;;2.30;;
52248;SDS011;38541;48.130;8.378;2023-05-07T09:20:03;2.47;;;1.98;;
52248;SDS011;38541;48.130;8.378;2023-05-07T09:22:32;2.38;;;2.17;;
52248;SDS011;38541;48.130;8.378;2023-05-07T09:25:05;2.50;;;2.22;;
52248;SDS011;38541;48.130;8.378;2023-05-07T09:27:34;4.15;;;3.75;;
52248;SDS011;38541;48.130;8.378;2023-05-07T09:30:05;4.03;;;3.60;;
52248;SDS011;38541;48.130;8.378;2023-05-07T09:32:34;2.88;;;2.67;;
52248;SDS011;38541;48.130;8.378;2023-05-07T09:35:05;2.50;;;2.10;;
52248;SDS011;38541;48.130;8.378;2023-05-07T09:37:33;3.60;;;1.90;;
52248;SDS011;38541;48.130;8.378;2023-05-07T09:40:00;2.40;;;2.20;;
52248;SDS011;38541;48.130;8.378;2023-05-07T09:42:29;2.28;;;2.08;;
52248;SDS011;38541;48.130;8.378;2023-05-07T09:44:59;2.83;;;2.50;;
52248;SDS011;38541;48.130;8.378;2023-05-07T09:47:31;2.58;;;2.42;;
52248;SDS011;38541;48.130;8.378;2023-05-07T09:50:03;2.45;;;2.08;;
52248;SDS011;38541;48.130;8.378;2023-05-07T09:52:32;2.72;;;2.53;;
52248;SDS011;38541;48.130;8.378;2023-05-07T09:55:03;2.83;;;2.50;;
52248;SDS011;38541;48.130;8.378;2023-05-07T09:57:32;2.50;;;2.30;;
52248;SDS011;38541;48.130;8.378;2023-05-07T10:00:04;2.25;;;2.15;;
52248;SDS011;38541;48.130;8.378;2023-05-07T10:02:46;2.53;;;2.00;;
52248;SDS011;38541;48.130;8.378;2023-05-07T10:05:24;2.35;;;1.88;;
52248;SDS011;38541;48.130;8.378;2023-05-07T10:07:55;2.30;;;2.10;;
52248;SDS011;38541;48.130;8.378;2023-05-07T10:10:23;2.10;;;2.00;;
52248;SDS011;38541;48.130;8.378;2023-05-07T10:12:50;2.30;;;2.00;;
52248;SDS011;38541;48.130;8.378;2023-05-07T10:15:26;2.00;;;1.90;;
52248;SDS011;38541;48.130;8.378;2023-05-07T10:17:55;2.35;;;2.25;;
52248;SDS011;38541;48.130;8.378;2023-05-07T10:20:23;2.50;;;2.30;;
52248;SDS011;38541;48.130;8.378;2023-05-07T10:22:52;2.28;;;2.08;;
52248;SDS011;38541;48.130;8.378;2023-05-07T10:25:30;2.45;;;2.25;;
52248;SDS011;38541;48.130;8.378;2023-05-07T10:28:05;2.13;;;1.98;;
52248;SDS011;38541;48.130;8.378;2023-05-07T10:33:16;2.83;;;2.53;;
52248;SDS011;38541;48.130;8.378;2023-05-07T10:35:48;2.00;;;1.90;;
52248;SDS011;38541;48.130;8.378;2023-05-07T10:38:15;2.33;;;2.00;;
52248;SDS011;38541;48.130;8.378;2023-05-07T10:40:44;2.45;;;2.05;;
52248;SDS011;38541;48.130;8.378;2023-05-07T10:43:14;2.58;;;2.13;;
52248;SDS011;38541;48.130;8.378;2023-05-07T10:51:33;2.30;;;2.10;;
52248;SDS011;38541;48.130;8.378;2023-05-07T10:56:44;2.95;;;1.88;;
52248;SDS011;38541;48.130;8.378;2023-05-07T11:01:57;2.28;;;2.05;;
52248;SDS011;38541;48.130;8.378;2023-05-07T11:07:53;4.20;;;2.40;;
52248;SDS011;38541;48.130;8.378;2023-05-07T11:10:22;2.67;;;2.47;;
52248;SDS011;38541;48.130;8.378;2023-05-07T11:12:59;2.60;;;2.40;;
52248;SDS011;38541;48.130;8.378;2023-05-07T11:15:33;2.72;;;2.00;;
52248;SDS011;38541;48.130;8.378;2023-05-07T11:18:13;3.92;;;2.22;;
52248;SDS011;38541;48.130;8.378;2023-05-07T11:26:10;6.63;;;2.75;;
52248;SDS011;38541;48.130;8.378;2023-05-07T11:28:39;2.60;;;2.40;;
52248;SDS011;38541;48.130;8.378;2023-05-07T11:31:07;4.35;;;3.70;;
52248;SDS011;38541;48.130;8.378;2023-05-07T11:33:35;4.55;;;2.95;;
52248;SDS011;38541;48.130;8.378;2023-05-07T11:36:08;3.20;;;2.72;;
52248;SDS011;38541;48.130;8.378;2023-05-07T11:38:40;2.47;;;2.28;;
52248;SDS011;38541;48.130;8.378;2023-05-07T11:41:07;2.38;;;1.70;;
52248;SDS011;38541;48.130;8.378;2023-05-07T11:43:34;2.83;;;2.08;;
52248;SDS011;38541;48.130;8.378;2023-05-07T11:46:09;7.45;;;5.13;;
52248;SDS011;38541;48.130;8.378;2023-05-07T11:48:36;4.72;;;2.95;;
52248;SDS011;38541;48.130;8.378;2023-05-07T11:51:06;2.63;;;2.42;;
52248;SDS011;38541;48.130;8.378;2023-05-07T11:53:39;2.63;;;2.13;;
52248;SDS011;38541;48.130;8.378;2023-05-07T11:56:10;2.17;;;1.60;;
52248;SDS011;38541;48.130;8.378;2023-05-07T11:58:38;2.30;;;2.05;;
52248;SDS011;38541;48.130;8.378;2023-05-07T12:01:09;2.50;;;1.95;;
52248;SDS011;38541;48.130;8.378;2023-05-07T12:03:37;2.50;;;1.60;;
52248;SDS011;38541;48.130;8.378;2023-05-07T12:06:09;3.70;;;2.22;;
52248;SDS011;38541;48.130;8.378;2023-05-07T12:08:40;3.47;;;2.78;;
52248;SDS011;38541;48.130;8.378;2023-05-07T12:11:08;2.63;;;1.88;;
52248;SDS011;38541;48.130;8.378;2023-05-07T12:13:37;3.55;;;1.67;;
52248;SDS011;38541;48.130;8.378;2023-05-07T12:16:05;1.98;;;1.77;;
52248;SDS011;38541;48.130;8.378;2023-05-07T12:18:33;1.85;;;1.60;;
52248;SDS011;38541;48.130;8.378;2023-05-07T12:21:01;2.80;;;1.55;;
52248;SDS011;38541;48.130;8.378;2023-05-07T12:23:28;2.40;;;1.73;;
52248;SDS011;38541;48.130;8.378;2023-05-07T12:25:55;2.42;;;1.38;;
52248;SDS011;38541;48.130;8.378;2023-05-07T12:28:21;1.70;;;1.30;;
52248;SDS011;38541;48.130;8.378;2023-05-07T12:30:49;1.48;;;1.38;;
52248;SDS011;38541;48.130;8.378;2023-05-07T12:33:18;2.90;;;1.40;;
52248;SDS011;38541;48.130;8.378;2023-05-07T12:35:47;1.25;;;1.25;;
52248;SDS011;38541;48.130;8.378;2023-05-07T12:38:15;3.78;;;1.70;;
52248;SDS011;38541;48.130;8.378;2023-05-07T12:40:44;1.50;;;1.40;;
52248;SDS011;38541;48.130;8.378;2023-05-07T12:45:47;1.58;;;1.48;;
52248;SDS011;38541;48.130;8.378;2023-05-07T12:48:15;2.03;;;1.50;;
52248;SDS011;38541;48.130;8.378;2023-05-07T12:50:41;2.40;;;1.73;;
52248;SDS011;38541;48.130;8.378;2023-05-07T12:53:09;2.63;;;2.13;;
52248;SDS011;38541;48.130;8.378;2023-05-07T12:55:45;2.42;;;1.88;;
52248;SDS011;38541;48.130;8.378;2023-05-07T12:58:20;2.28;;;1.55;;
52248;SDS011;38541;48.130;8.378;2023-05-07T13:00:49;1.80;;;1.70;;
52248;SDS011;38541;48.130;8.378;2023-05-07T13:03:21;2.50;;;1.80;;
52248;SDS011;38541;48.130;8.378;2023-05-07T13:06:02;1.92;;;1.60;;
52248;SDS011;38541;48.130;8.378;2023-05-07T13:08:31;1.73;;;1.13;;
52248;SDS011;38541;48.130;8.378;2023-05-07T13:10:59;2.03;;;1.40;;
52248;SDS011;38541;48.130;8.378;2023-05-07T13:13:30;1.52;;;1.17;;
52248;SDS011;38541;48.130;8.378;2023-05-07T13:15:58;1.48;;;1.27;;
52248;SDS011;38541;48.130;8.378;2023-05-07T13:18:25;1.10;;;1.10;;
52248;SDS011;38541;48.130;8.378;2023-05-07T13:20:53;1.27;;;1.17;;
52248;SDS011;38541;48.130;8.378;2023-05-07T13:23:20;0.90;;;0.90;;
52248;SDS011;38541;48.130;8.378;2023-05-07T13:25:47;1.48;;;1.10;;
52248;SDS011;38541;48.130;8.378;2023-05-07T13:28:15;1.50;;;1.33;;
52248;SDS011;38541;48.130;8.378;2023-05-07T13:30:42;1.13;;;1.02;;
52248;SDS011;38541;48.130;8.378;2023-05-07T13:33:09;0.80;;;0.80;;
52248;SDS011;38541;48.130;8.378;2023-05-07T13:35:36;1.10;;;1.10;;
52248;SDS011;38541;48.130;8.378;2023-05-07T13:38:02;0.95;;;0.95;;
52248;SDS011;38541;48.130;8.378;2023-05-07T13:40:29;0.88;;;0.88;;
52248;SDS011;38541;48.130;8.378;2023-05-07T13:42:56;0.88;;;0.88;;
52248;SDS011;38541;48.130;8.378;2023-05-07T13:45:24;1.90;;;1.10;;
52248;SDS011;38541;48.130;8.378;2023-05-07T13:47:52;1.05;;;0.88;;
52248;SDS011;38541;48.130;8.378;2023-05-07T13:50:18;0.70;;;0.70;;
52248;SDS011;38541;48.130;8.378;2023-05-07T13:52:45;0.80;;;0.80;;
52248;SDS011;38541;48.130;8.378;2023-05-07T13:55:17;1.10;;;1.10;;
52248;SDS011;38541;48.130;8.378;2023-05-07T13:57:44;0.80;;;0.80;;
52248;SDS011;38541;48.130;8.378;2023-05-07T14:00:11;1.05;;;1.05;;
52248;SDS011;38541;48.130;8.378;2023-05-07T14:02:42;1.05;;;0.93;;
52248;SDS011;38541;48.130;8.378;2023-05-07T14:05:08;1.15;;;1.02;;
52248;SDS011;38541;48.130;8.378;2023-05-07T14:07:36;1.30;;;1.20;;
52248;SDS011;38541;48.130;8.378;2023-05-07T14:10:02;2.55;;;1.60;;
52248;SDS011;38541;48.130;8.378;2023-05-07T14:12:29;1.40;;;1.35;;
52248;SDS011;38541;48.130;8.378;2023-05-07T14:14:55;3.75;;;2.40;;
52248;SDS011;38541;48.130;8.378;2023-05-07T14:17:22;2.08;;;1.80;;
52248;SDS011;38541;48.130;8.378;2023-05-07T14:19:51;2.78;;;2.05;;
52248;SDS011;38541;48.130;8.378;2023-05-07T14:22:20;4.82;;;2.78;;
52248;SDS011;38541;48.130;8.378;2023-05-07T14:24:49;2.70;;;2.10;;
52248;SDS011;38541;48.130;8.378;2023-05-07T14:27:31;3.20;;;1.77;;
52248;SDS011;38541;48.130;8.378;2023-05-07T14:29:58;3.30;;;3.00;;
52248;SDS011;38541;48.130;8.378;2023-05-07T14:32:24;2.75;;;2.55;;
52248;SDS011;38541;48.130;8.378;2023-05-07T14:34:51;2.83;;;2.63;;
52248;SDS011;38541;48.130;8.378;2023-05-07T14:37:17;3.40;;;2.50;;
52248;SDS011;38541;48.130;8.378;2023-05-07T14:39:46;2.88;;;2.67;;
52248;SDS011;38541;48.130;8.378;2023-05-07T14:42:15;3.47;;;2.45;;
52248;SDS011;38541;48.130;8.378;2023-05-07T14:44:41;4.68;;;4.10;;
52248;SDS011;38541;48.130;8.378;2023-05-07T14:47:08;4.72;;;3.60;;
52248;SDS011;38541;48.130;8.378;2023-05-07T14:49:35;3.13;;;2.83;;
52248;SDS011;38541;48.130;8.378;2023-05-07T14:52:02;2.75;;;2.55;;
52248;SDS011;38541;48.130;8.378;2023-05-07T14:54:28;4.40;;;4.07;;
52248;SDS011;38541;48.130;8.378;2023-05-07T14:56:55;4.28;;;3.60;;
52248;SDS011;38541;48.130;8.378;2023-05-07T14:59:22;2.42;;;2.25;;
52248;SDS011;38541;48.130;8.378;2023-05-07T15:01:50;2.38;;;2.20;;
52248;SDS011;38541;48.130;8.378;2023-05-07T15:04:17;2.55;;;2.13;;
52248;SDS011;38541;48.130;8.378;2023-05-07T15:06:44;2.13;;;2.00;;
52248;SDS011;38541;48.130;8.378;2023-05-07T15:09:12;2.40;;;2.20;;
52248;SDS011;38541;48.130;8.378;2023-05-07T15:11:39;3.00;;;2.20;;
52248;SDS011;38541;48.130;8.378;2023-05-07T15:14:06;2.38;;;2.17;;
52248;SDS011;38541;48.130;8.378;2023-05-07T15:16:32;5.40;;;3.35;;
52248;SDS011;38541;48.130;8.378;2023-05-07T15:19:00;4.63;;;2.67;;